createdAt,value
2022-09-26T00:00:08.424Z,577.84
2022-09-26T00:00:20.426Z,577.84
2022-09-26T00:00:32.423Z,577.88
2022-09-26T00:00:43.427Z,577.87
2022-09-26T00:00:55.502Z,577.90
2022-09-26T00:01:07.493Z,577.91
2022-09-26T00:01:18.443Z,577.93
2022-09-26T00:01:29.498Z,577.96
2022-09-26T00:01:41.474Z,577.96
2022-09-26T00:01:52.497Z,577.96
2022-09-26T00:02:03.558Z,577.95
2022-09-26T00:02:15.468Z,577.96
2022-09-26T00:02:26.457Z,577.96
2022-09-26T00:02:38.507Z,578.00
2022-09-26T00:02:50.523Z,578.02
2022-09-26T00:03:02.411Z,578.04
2022-09-26T00:03:13.420Z,578.02
2022-09-26T00:03:24.425Z,578.06
2022-09-26T00:03:35.428Z,578.04
2022-09-26T00:03:47.432Z,578.09
2022-09-26T00:03:58.434Z,578.09
2022-09-26T00:04:10.431Z,578.08
2022-09-26T00:04:23.685Z,578.12
2022-09-26T00:04:33.399Z,578.13
2022-09-26T00:04:44.410Z,578.13
2022-09-26T00:04:56.413Z,578.16
2022-09-26T00:05:08.407Z,578.20
2022-09-26T00:05:20.403Z,578.27
2022-09-26T00:05:32.402Z,578.31
2022-09-26T00:05:44.392Z,578.34
2022-09-26T00:05:56.391Z,578.36
2022-09-26T00:06:08.403Z,578.45
2022-09-26T00:06:20.420Z,578.48
2022-09-26T00:06:32.395Z,578.51
2022-09-26T00:06:43.401Z,578.51
2022-09-26T00:06:55.393Z,578.57
2022-09-26T00:07:07.395Z,578.64
2022-09-26T00:07:19.397Z,578.66
2022-09-26T00:07:31.383Z,578.72
2022-09-26T00:07:42.406Z,578.75
2022-09-26T00:07:53.510Z,578.76
2022-09-26T00:08:05.375Z,578.78
2022-09-26T00:08:16.373Z,578.82
2022-09-26T00:08:28.364Z,578.81
2022-09-26T00:08:39.452Z,578.84
2022-09-26T00:08:51.453Z,578.88
2022-09-26T00:09:03.441Z,578.90
2022-09-26T00:09:15.520Z,578.89
2022-09-26T00:09:27.365Z,578.90
2022-09-26T00:09:38.459Z,578.94
2022-09-26T00:09:50.447Z,578.93
2022-09-26T00:10:02.452Z,578.99
2022-09-26T00:10:14.452Z,578.98
2022-09-26T00:10:26.454Z,579.05
2022-09-26T00:10:38.456Z,579.09
2022-09-26T00:10:50.449Z,579.12
2022-09-26T00:11:02.446Z,579.17
2022-09-26T00:11:14.446Z,579.19
2022-09-26T00:11:25.446Z,579.22
2022-09-26T00:11:37.440Z,579.22
2022-09-26T00:11:48.443Z,579.24
2022-09-26T00:12:00.436Z,579.26
2022-09-26T00:12:12.435Z,579.26
2022-09-26T00:12:23.433Z,579.29
2022-09-26T00:12:35.436Z,579.30
2022-09-26T00:12:47.459Z,579.34
2022-09-26T00:12:58.459Z,579.35
2022-09-26T00:13:10.454Z,579.38
2022-09-26T00:13:22.441Z,579.40
2022-09-26T00:13:34.394Z,579.43
2022-09-26T00:13:46.391Z,579.46
2022-09-26T00:13:58.390Z,579.46
2022-09-26T00:14:09.392Z,579.46
2022-09-26T00:14:21.390Z,579.51
2022-09-26T00:14:32.391Z,579.53
2022-09-26T00:14:44.396Z,579.54
2022-09-26T00:14:55.398Z,579.54
2022-09-26T00:15:07.398Z,579.53
2022-09-26T00:15:18.402Z,579.50
2022-09-26T00:15:29.401Z,579.53
2022-09-26T00:15:40.401Z,579.53
2022-09-26T00:15:52.404Z,579.57
2022-09-26T00:16:04.407Z,579.58
2022-09-26T00:16:16.436Z,579.60
2022-09-26T00:16:28.480Z,579.61
2022-09-26T00:16:39.455Z,579.66
2022-09-26T00:16:51.522Z,579.70
2022-09-26T00:17:03.493Z,579.70
2022-09-26T00:17:14.525Z,579.71
2022-09-26T00:17:26.401Z,579.73
2022-09-26T00:17:38.421Z,579.74
2022-09-26T00:17:49.410Z,579.73
2022-09-26T00:18:00.407Z,579.73
2022-09-26T00:18:12.411Z,579.73
2022-09-26T00:18:23.408Z,579.74
2022-09-26T00:18:35.414Z,579.75
2022-09-26T00:18:47.411Z,579.79
2022-09-26T00:18:59.406Z,579.80
2022-09-26T00:19:10.408Z,579.77
2022-09-26T00:19:22.397Z,579.76
2022-09-26T00:19:34.390Z,579.78
2022-09-26T00:19:46.386Z,579.76
2022-09-26T00:19:57.401Z,579.75
2022-09-26T00:20:09.387Z,579.73
2022-09-26T00:20:21.387Z,579.70
2022-09-26T00:20:33.374Z,579.69
2022-09-26T00:20:44.381Z,579.67
2022-09-26T00:20:56.372Z,579.68
2022-09-26T00:21:07.371Z,579.68
2022-09-26T00:21:19.375Z,579.67
2022-09-26T00:21:31.376Z,579.69
2022-09-26T00:21:43.377Z,579.72
2022-09-26T00:21:54.378Z,579.69
2022-09-26T00:22:06.382Z,579.66
2022-09-26T00:22:17.382Z,579.67
2022-09-26T00:22:29.372Z,579.69
2022-09-26T00:22:41.382Z,579.71
2022-09-26T00:22:53.367Z,579.72
2022-09-26T00:23:04.483Z,579.68
2022-09-26T00:23:16.449Z,579.66
2022-09-26T00:23:28.439Z,579.67
2022-09-26T00:23:40.440Z,579.68
2022-09-26T00:23:51.440Z,579.71
2022-09-26T00:24:03.437Z,579.74
2022-09-26T00:24:15.438Z,579.75
2022-09-26T00:24:27.433Z,579.72
2022-09-26T00:24:39.425Z,579.74
2022-09-26T00:24:51.421Z,579.75
2022-09-26T00:25:02.432Z,579.76
2022-09-26T00:25:14.436Z,579.77
2022-09-26T00:25:25.439Z,579.77
2022-09-26T00:25:37.442Z,579.77
2022-09-26T00:25:49.425Z,579.80
2022-09-26T00:26:00.440Z,579.82
2022-09-26T00:26:12.434Z,579.84
2022-09-26T00:26:24.439Z,579.90
2022-09-26T00:26:36.428Z,579.89
2022-09-26T00:26:48.429Z,579.91
2022-09-26T00:27:00.422Z,579.93
2022-09-26T00:27:12.418Z,579.96
2022-09-26T00:27:24.411Z,579.99
2022-09-26T00:27:36.404Z,580.00
2022-09-26T00:27:48.414Z,580.02
2022-09-26T00:27:59.406Z,580.04
2022-09-26T00:28:11.410Z,580.03
2022-09-26T00:28:23.410Z,580.05
2022-09-26T00:28:35.413Z,580.03
2022-09-26T00:28:47.414Z,580.02
2022-09-26T00:28:58.416Z,579.98
2022-09-26T00:29:10.398Z,580.05
2022-09-26T00:29:22.387Z,580.08
2022-09-26T00:29:34.388Z,580.12
2022-09-26T00:29:46.391Z,580.11
2022-09-26T00:29:57.393Z,580.11
2022-09-26T00:30:08.387Z,580.10
2022-09-26T00:30:20.475Z,580.14
2022-09-26T00:30:31.507Z,580.17
2022-09-26T00:30:43.432Z,580.12
2022-09-26T00:30:55.413Z,580.11
2022-09-26T00:31:06.474Z,580.10
2022-09-26T00:31:17.522Z,580.09
2022-09-26T00:31:28.465Z,580.11
2022-09-26T00:31:39.458Z,580.09
2022-09-26T00:31:51.469Z,580.08
2022-09-26T00:32:02.365Z,580.07
2022-09-26T00:32:13.457Z,580.11
2022-09-26T00:32:25.456Z,580.11
2022-09-26T00:32:37.450Z,580.12
2022-09-26T00:32:49.459Z,580.10
2022-09-26T00:33:00.449Z,580.11
2022-09-26T00:33:11.449Z,580.13
2022-09-26T00:33:23.445Z,580.15
2022-09-26T00:33:34.359Z,580.22
2022-09-26T00:33:45.366Z,580.24
2022-09-26T00:33:56.453Z,580.26
2022-09-26T00:34:08.369Z,580.26
2022-09-26T00:34:19.456Z,580.31
2022-09-26T00:34:31.460Z,580.30
2022-09-26T00:34:42.458Z,580.29
2022-09-26T00:34:54.376Z,580.29
2022-09-26T00:35:06.367Z,580.30
2022-09-26T00:35:17.378Z,580.34
2022-09-26T00:35:28.374Z,580.35
2022-09-26T00:35:39.379Z,580.34
2022-09-26T00:35:51.374Z,580.34
2022-09-26T00:36:03.382Z,580.36
2022-09-26T00:36:14.379Z,580.36
2022-09-26T00:36:37.039Z,580.37
2022-09-26T00:36:39.040Z,580.41
2022-09-26T00:36:49.408Z,580.42
2022-09-26T00:37:01.404Z,580.42
2022-09-26T00:37:12.408Z,580.45
2022-09-26T00:37:23.415Z,580.48
2022-09-26T00:37:35.398Z,580.49
2022-09-26T00:37:47.406Z,580.48
2022-09-26T00:37:59.397Z,580.47
2022-09-26T00:38:11.419Z,580.54
2022-09-26T00:38:23.396Z,580.52
2022-09-26T00:38:34.397Z,580.54
2022-09-26T00:38:45.404Z,580.55
2022-09-26T00:38:56.402Z,580.59
2022-09-26T00:39:08.577Z,580.62
2022-09-26T00:39:20.374Z,580.62
2022-09-26T00:39:31.379Z,580.68
2022-09-26T00:39:43.390Z,580.71
2022-09-26T00:39:54.396Z,580.75
2022-09-26T00:40:06.387Z,580.79
2022-09-26T00:40:18.438Z,580.82
2022-09-26T00:40:29.446Z,580.87
2022-09-26T00:40:41.470Z,580.91
2022-09-26T00:40:52.510Z,580.89
2022-09-26T00:41:04.413Z,580.96
2022-09-26T00:41:16.413Z,581.03
2022-09-26T00:41:28.406Z,581.02
2022-09-26T00:41:40.401Z,581.04
2022-09-26T00:41:52.387Z,581.02
2022-09-26T00:42:03.390Z,581.03
2022-09-26T00:42:14.407Z,581.07
2022-09-26T00:42:26.399Z,581.13
2022-09-26T00:42:38.403Z,581.15
2022-09-26T00:42:50.410Z,581.12
2022-09-26T00:43:01.405Z,581.18
2022-09-26T00:43:13.403Z,581.18
2022-09-26T00:43:25.398Z,581.18
2022-09-26T00:43:36.401Z,581.18
2022-09-26T00:43:48.392Z,581.26
2022-09-26T00:43:59.393Z,581.31
2022-09-26T00:44:11.385Z,581.29
2022-09-26T00:44:23.383Z,581.30
2022-09-26T00:44:35.387Z,581.31
2022-09-26T00:44:47.384Z,581.39
2022-09-26T00:44:59.374Z,581.44
2022-09-26T00:45:10.382Z,581.46
2022-09-26T00:45:22.381Z,581.49
2022-09-26T00:45:34.430Z,581.50
2022-09-26T00:45:45.463Z,581.52
2022-09-26T00:45:56.502Z,581.55
2022-09-26T00:46:07.634Z,581.56
2022-09-26T00:46:19.507Z,581.59
2022-09-26T00:46:31.498Z,581.65
2022-09-26T00:46:42.438Z,581.67
2022-09-26T00:46:54.421Z,581.68
2022-09-26T00:47:06.417Z,581.69
2022-09-26T00:47:18.413Z,581.73
2022-09-26T00:47:29.420Z,581.79
2022-09-26T00:47:41.419Z,581.83
2022-09-26T00:47:53.418Z,581.83
2022-09-26T00:48:04.410Z,581.86
2022-09-26T00:48:16.408Z,581.88
2022-09-26T00:48:28.410Z,581.89
2022-09-26T00:48:40.398Z,581.93
2022-09-26T00:48:52.395Z,581.95
2022-09-26T00:49:03.393Z,581.96
2022-09-26T00:49:15.499Z,581.98
2022-09-26T00:49:26.445Z,582.01
2022-09-26T00:49:38.445Z,582.02
2022-09-26T00:49:50.442Z,582.07
2022-09-26T00:50:02.426Z,582.11
2022-09-26T00:50:14.412Z,582.14
2022-09-26T00:50:26.417Z,582.14
2022-09-26T00:50:38.421Z,582.11
2022-09-26T00:50:50.426Z,582.11
2022-09-26T00:51:01.433Z,582.12
2022-09-26T00:51:13.428Z,582.17
2022-09-26T00:51:25.428Z,582.16
2022-09-26T00:51:37.430Z,582.14
2022-09-26T00:51:48.432Z,582.18
2022-09-26T00:52:00.423Z,582.18
2022-09-26T00:52:12.423Z,582.22
2022-09-26T00:52:24.417Z,582.23
2022-09-26T00:52:36.406Z,582.25
2022-09-26T00:52:47.407Z,582.25
2022-09-26T00:52:59.598Z,582.22
2022-09-26T00:53:11.389Z,582.20
2022-09-26T00:53:23.411Z,582.23
2022-09-26T00:53:34.392Z,582.27
2022-09-26T00:53:46.399Z,582.27
2022-09-26T00:53:58.392Z,582.27
2022-09-26T00:54:10.394Z,582.27
2022-09-26T00:54:22.390Z,582.32
2022-09-26T00:54:34.388Z,582.32
2022-09-26T00:54:46.391Z,582.32
2022-09-26T00:54:58.373Z,582.38
2022-09-26T00:55:09.372Z,582.41
2022-09-26T00:55:20.376Z,582.43
2022-09-26T00:55:32.365Z,582.45
2022-09-26T00:55:43.378Z,582.47
2022-09-26T00:55:55.373Z,582.54
2022-09-26T00:56:07.378Z,582.59
2022-09-26T00:56:19.375Z,582.64
2022-09-26T00:56:31.370Z,582.68
2022-09-26T00:56:42.373Z,582.68
2022-09-26T00:56:53.385Z,582.71
2022-09-26T00:57:04.388Z,582.71
2022-09-26T00:57:16.387Z,582.74
2022-09-26T00:57:27.395Z,582.72
2022-09-26T00:57:39.391Z,582.70
2022-09-26T00:57:51.410Z,582.72
2022-09-26T00:58:03.402Z,582.71
2022-09-26T00:58:14.404Z,582.69
2022-09-26T00:58:25.403Z,582.66
2022-09-26T00:58:37.399Z,582.67
2022-09-26T00:58:48.399Z,582.64
2022-09-26T00:59:00.386Z,582.67
2022-09-26T00:59:12.478Z,582.68
2022-09-26T00:59:23.438Z,582.68
2022-09-26T00:59:35.432Z,582.70
2022-09-26T00:59:47.429Z,582.69
2022-09-26T00:59:59.436Z,582.71
2022-09-26T01:00:10.433Z,582.73
2022-09-26T01:00:22.433Z,582.72
2022-09-26T01:00:34.243Z,582.73
2022-09-26T01:00:45.376Z,582.79
2022-09-26T01:00:56.574Z,582.84
2022-09-26T01:01:08.590Z,582.86
2022-09-26T01:01:20.455Z,582.87
2022-09-26T01:01:31.585Z,582.91
2022-09-26T01:01:43.575Z,582.97
2022-09-26T01:01:54.524Z,582.98
2022-09-26T01:02:06.545Z,583.02
2022-09-26T01:02:17.663Z,583.03
2022-09-26T01:02:29.510Z,583.04
2022-09-26T01:02:40.527Z,583.05
2022-09-26T01:02:52.386Z,583.11
2022-09-26T01:03:03.378Z,583.16
2022-09-26T01:03:15.370Z,583.21
2022-09-26T01:03:26.462Z,583.23
2022-09-26T01:03:38.446Z,583.21
2022-09-26T01:03:50.447Z,583.23
2022-09-26T01:04:02.445Z,583.26
2022-09-26T01:04:14.437Z,583.28
2022-09-26T01:04:26.438Z,583.33
2022-09-26T01:04:37.442Z,583.37
2022-09-26T01:04:49.431Z,583.44
2022-09-26T01:05:01.422Z,583.50
2022-09-26T01:05:13.417Z,583.51
2022-09-26T01:05:25.408Z,583.54
2022-09-26T01:05:37.418Z,583.57
2022-09-26T01:05:48.416Z,583.59
2022-09-26T01:06:00.404Z,583.64
2022-09-26T01:06:12.399Z,583.71
2022-09-26T01:06:24.402Z,583.74
2022-09-26T01:06:36.408Z,583.78
2022-09-26T01:06:48.408Z,583.85
2022-09-26T01:07:00.413Z,583.86
2022-09-26T01:07:11.419Z,583.91
2022-09-26T01:07:22.433Z,583.94
2022-09-26T01:07:33.433Z,583.95
2022-09-26T01:07:45.440Z,583.96
2022-09-26T01:07:57.447Z,583.97
2022-09-26T01:08:08.449Z,583.98
2022-09-26T01:08:20.440Z,584.03
2022-09-26T01:08:31.462Z,584.05
2022-09-26T01:08:43.440Z,584.09
2022-09-26T01:08:55.439Z,584.12
2022-09-26T01:09:07.461Z,584.14
2022-09-26T01:09:19.433Z,584.15
2022-09-26T01:09:31.439Z,584.19
2022-09-26T01:09:43.439Z,584.22
2022-09-26T01:09:54.358Z,584.26
2022-09-26T01:10:05.463Z,584.25
2022-09-26T01:10:17.461Z,584.23
2022-09-26T01:10:28.461Z,584.32
2022-09-26T01:10:39.361Z,584.36
2022-09-26T01:10:51.367Z,584.33
2022-09-26T01:11:02.384Z,584.32
2022-09-26T01:11:16.770Z,584.35
2022-09-26T01:11:24.403Z,584.33
2022-09-26T01:11:36.409Z,584.37
2022-09-26T01:11:48.410Z,584.35
2022-09-26T01:12:00.417Z,584.35
2022-09-26T01:12:11.431Z,584.37
2022-09-26T01:12:23.420Z,584.40
2022-09-26T01:12:34.427Z,584.40
2022-09-26T01:12:46.433Z,584.44
2022-09-26T01:12:58.448Z,584.47
2022-09-26T01:13:09.439Z,584.50
2022-09-26T01:13:20.437Z,584.54
2022-09-26T01:13:32.436Z,584.53
2022-09-26T01:13:43.436Z,584.56
2022-09-26T01:13:54.441Z,584.62
2022-09-26T01:14:06.441Z,584.67
2022-09-26T01:14:18.448Z,584.69
2022-09-26T01:14:30.455Z,584.73
2022-09-26T01:14:42.449Z,584.78
2022-09-26T01:14:54.443Z,584.81
2022-09-26T01:15:06.440Z,584.87
2022-09-26T01:15:17.437Z,584.92
2022-09-26T01:15:28.442Z,584.97
2022-09-26T01:15:40.441Z,585.01
2022-09-26T01:15:52.447Z,585.05
2022-09-26T01:16:03.444Z,585.11
2022-09-26T01:16:15.542Z,585.16
2022-09-26T01:16:27.422Z,585.19
2022-09-26T01:16:38.495Z,585.23
2022-09-26T01:16:50.512Z,585.28
2022-09-26T01:17:01.571Z,585.32
2022-09-26T01:17:13.433Z,585.35
2022-09-26T01:17:24.441Z,585.36
2022-09-26T01:17:36.435Z,585.45
2022-09-26T01:17:48.427Z,585.47
2022-09-26T01:18:00.438Z,585.47
2022-09-26T01:18:12.420Z,585.50
2022-09-26T01:18:24.410Z,585.53
2022-09-26T01:18:36.386Z,585.56
2022-09-26T01:18:48.391Z,585.57
2022-09-26T01:19:00.392Z,585.60
2022-09-26T01:19:12.381Z,585.62
2022-09-26T01:19:24.389Z,585.69
2022-09-26T01:19:36.393Z,585.72
2022-09-26T01:19:48.379Z,585.75
2022-09-26T01:20:00.370Z,585.77
2022-09-26T01:20:12.365Z,585.80
2022-09-26T01:20:23.450Z,585.82
2022-09-26T01:20:35.450Z,585.85
2022-09-26T01:20:46.455Z,585.86
2022-09-26T01:20:58.462Z,585.85
2022-09-26T01:21:10.448Z,585.87
2022-09-26T01:21:22.448Z,585.91
2022-09-26T01:21:34.451Z,585.94
2022-09-26T01:21:46.450Z,585.93
2022-09-26T01:21:58.437Z,585.92
2022-09-26T01:22:10.440Z,585.91
2022-09-26T01:22:21.441Z,585.90
2022-09-26T01:22:33.444Z,585.91
2022-09-26T01:22:44.451Z,585.92
2022-09-26T01:22:56.446Z,585.93
2022-09-26T01:23:08.453Z,585.93
2022-09-26T01:23:19.449Z,585.94
2022-09-26T01:23:31.450Z,585.96
2022-09-26T01:23:43.468Z,585.96
2022-09-26T01:23:55.439Z,586.01
2022-09-26T01:24:07.439Z,586.01
2022-09-26T01:24:19.433Z,586.02
2022-09-26T01:24:31.424Z,585.97
2022-09-26T01:24:43.428Z,585.99
2022-09-26T01:24:55.418Z,586.01
2022-09-26T01:25:07.416Z,586.03
2022-09-26T01:25:19.423Z,586.05
2022-09-26T01:25:31.418Z,586.05
2022-09-26T01:25:43.416Z,586.04
2022-09-26T01:25:55.411Z,586.05
2022-09-26T01:26:07.414Z,586.08
2022-09-26T01:26:19.405Z,586.09
2022-09-26T01:26:31.396Z,586.11
2022-09-26T01:26:43.400Z,586.11
2022-09-26T01:26:55.388Z,586.13
2022-09-26T01:27:07.385Z,586.14
2022-09-26T01:27:18.388Z,586.16
2022-09-26T01:27:30.379Z,586.21
2022-09-26T01:27:41.385Z,586.24
2022-09-26T01:27:53.390Z,586.24
2022-09-26T01:28:05.392Z,586.29
2022-09-26T01:28:16.392Z,586.28
2022-09-26T01:28:27.394Z,586.26
2022-09-26T01:28:39.391Z,586.26
2022-09-26T01:28:51.380Z,586.24
2022-09-26T01:29:03.381Z,586.28
2022-09-26T01:29:15.502Z,586.29
2022-09-26T01:29:27.395Z,586.29
2022-09-26T01:29:39.392Z,586.32
2022-09-26T01:29:50.393Z,586.35
2022-09-26T01:30:02.380Z,586.38
2022-09-26T01:30:13.379Z,586.44
2022-09-26T01:30:25.434Z,586.48
2022-09-26T01:30:36.448Z,586.53
2022-09-26T01:30:48.520Z,586.56
2022-09-26T01:30:59.542Z,586.62
2022-09-26T01:31:11.456Z,586.67
2022-09-26T01:31:22.511Z,586.70
2022-09-26T01:31:34.434Z,586.77
2022-09-26T01:31:45.428Z,586.79
2022-09-26T01:31:57.434Z,586.84
2022-09-26T01:32:09.421Z,586.92
2022-09-26T01:32:21.420Z,586.96
2022-09-26T01:32:33.416Z,587.01
2022-09-26T01:32:45.406Z,587.03
2022-09-26T01:32:57.403Z,587.07
2022-09-26T01:33:09.404Z,587.10
2022-09-26T01:33:20.392Z,587.16
2022-09-26T01:33:32.388Z,587.20
2022-09-26T01:33:44.383Z,587.26
2022-09-26T01:33:56.380Z,587.32
2022-09-26T01:34:08.382Z,587.33
2022-09-26T01:34:20.376Z,587.38
2022-09-26T01:34:32.368Z,587.44
2022-09-26T01:34:43.366Z,587.49
2022-09-26T01:34:54.455Z,587.51
2022-09-26T01:35:06.448Z,587.55
2022-09-26T01:35:18.449Z,587.55
2022-09-26T01:35:30.436Z,587.55
2022-09-26T01:35:42.432Z,587.57
2022-09-26T01:35:54.425Z,587.60
2022-09-26T01:36:06.417Z,587.63
2022-09-26T01:36:18.412Z,587.60
2022-09-26T01:36:30.406Z,587.62
2022-09-26T01:36:42.399Z,587.62
2022-09-26T01:36:54.396Z,587.60
2022-09-26T01:37:06.390Z,587.61
2022-09-26T01:37:18.386Z,587.55
2022-09-26T01:37:30.377Z,587.57
2022-09-26T01:37:42.373Z,587.51
2022-09-26T01:37:54.381Z,587.50
2022-09-26T01:38:06.365Z,587.47
2022-09-26T01:38:17.472Z,587.43
2022-09-26T01:38:29.378Z,587.40
2022-09-26T01:38:40.361Z,587.39
2022-09-26T01:38:52.382Z,587.36
2022-09-26T01:39:03.453Z,587.34
2022-09-26T01:39:15.633Z,587.33
2022-09-26T01:39:27.413Z,587.30
2022-09-26T01:39:39.408Z,587.32
2022-09-26T01:39:51.405Z,587.31
2022-09-26T01:40:02.414Z,587.35
2022-09-26T01:40:14.488Z,587.42
2022-09-26T01:40:25.523Z,587.44
2022-09-26T01:40:37.448Z,587.50
2022-09-26T01:40:48.483Z,587.52
2022-09-26T01:40:59.588Z,587.56
2022-09-26T01:41:11.377Z,587.58
2022-09-26T01:41:23.370Z,587.59
2022-09-26T01:41:34.359Z,587.61
2022-09-26T01:41:45.449Z,587.62
2022-09-26T01:41:57.446Z,587.60
2022-09-26T01:42:09.430Z,587.62
2022-09-26T01:42:21.424Z,587.61
2022-09-26T01:42:33.419Z,587.58
2022-09-26T01:42:44.421Z,587.57
2022-09-26T01:42:56.416Z,587.54
2022-09-26T01:43:08.446Z,587.55
2022-09-26T01:43:19.426Z,587.53
2022-09-26T01:43:31.426Z,587.51
2022-09-26T01:43:43.415Z,587.53
2022-09-26T01:43:55.413Z,587.58
2022-09-26T01:44:07.418Z,587.60
2022-09-26T01:44:19.416Z,587.59
2022-09-26T01:44:31.419Z,587.58
2022-09-26T01:44:43.406Z,587.57
2022-09-26T01:44:54.410Z,587.56
2022-09-26T01:45:06.408Z,587.56
2022-09-26T01:45:18.404Z,587.58
2022-09-26T01:45:30.505Z,587.55
2022-09-26T01:45:42.412Z,587.57
2022-09-26T01:45:54.478Z,587.53
2022-09-26T01:46:05.460Z,587.54
2022-09-26T01:46:16.520Z,587.54
2022-09-26T01:46:28.439Z,587.58
2022-09-26T01:46:40.398Z,587.59
2022-09-26T01:46:52.391Z,587.57
2022-09-26T01:47:04.384Z,587.56
2022-09-26T01:47:15.414Z,587.58
2022-09-26T01:47:27.378Z,587.55
2022-09-26T01:47:38.375Z,587.52
2022-09-26T01:47:49.462Z,587.52
2022-09-26T01:48:01.455Z,587.56
2022-09-26T01:48:13.461Z,587.62
2022-09-26T01:48:25.445Z,587.63
2022-09-26T01:48:37.439Z,587.61
2022-09-26T01:48:48.462Z,587.61
2022-09-26T01:49:00.432Z,587.62
2022-09-26T01:49:12.509Z,587.63
2022-09-26T01:49:24.442Z,587.69
2022-09-26T01:49:36.444Z,587.68
2022-09-26T01:49:48.427Z,587.71
2022-09-26T01:50:00.421Z,587.77
2022-09-26T01:50:12.409Z,587.79
2022-09-26T01:50:24.400Z,587.80
2022-09-26T01:50:35.409Z,587.82
2022-09-26T01:50:46.406Z,587.80
2022-09-26T01:50:58.398Z,587.83
2022-09-26T01:51:10.393Z,587.86
2022-09-26T01:51:22.397Z,587.87
2022-09-26T01:51:33.402Z,587.87
2022-09-26T01:51:45.402Z,587.90
2022-09-26T01:51:57.400Z,587.91
2022-09-26T01:52:09.397Z,587.94
2022-09-26T01:52:21.394Z,587.96
2022-09-26T01:52:33.391Z,588.01
2022-09-26T01:52:45.390Z,588.03
2022-09-26T01:52:57.387Z,588.06
2022-09-26T01:53:09.382Z,588.09
2022-09-26T01:53:21.396Z,588.17
2022-09-26T01:53:32.392Z,588.23
2022-09-26T01:53:44.391Z,588.24
2022-09-26T01:53:55.412Z,588.27
2022-09-26T01:54:07.393Z,588.27
2022-09-26T01:54:18.385Z,588.28
2022-09-26T01:54:30.384Z,588.28
2022-09-26T01:54:42.379Z,588.31
2022-09-26T01:54:53.361Z,588.29
2022-09-26T01:55:04.452Z,588.31
2022-09-26T01:55:16.448Z,588.35
2022-09-26T01:55:28.447Z,588.39
2022-09-26T01:55:40.443Z,588.39
2022-09-26T01:55:51.452Z,588.42
2022-09-26T01:56:03.450Z,588.45
2022-09-26T01:56:14.449Z,588.50
2022-09-26T01:56:26.442Z,588.49
2022-09-26T01:56:38.430Z,588.53
2022-09-26T01:56:50.417Z,588.49
2022-09-26T01:57:02.416Z,588.52
2022-09-26T01:57:14.405Z,588.51
2022-09-26T01:57:26.405Z,588.51
2022-09-26T01:57:38.413Z,588.46
2022-09-26T01:57:50.401Z,588.49
2022-09-26T01:58:02.403Z,588.49
2022-09-26T01:58:13.419Z,588.52
2022-09-26T01:58:24.419Z,588.53
2022-09-26T01:58:36.406Z,588.52
2022-09-26T01:58:48.401Z,588.52
2022-09-26T01:59:00.401Z,588.52
2022-09-26T01:59:12.405Z,588.50
2022-09-26T01:59:24.398Z,588.54
2022-09-26T01:59:36.396Z,588.54
2022-09-26T01:59:48.394Z,588.57
2022-09-26T02:00:00.387Z,588.59
2022-09-26T02:00:12.382Z,588.57
2022-09-26T02:00:24.380Z,588.55
2022-09-26T02:00:35.382Z,588.57
2022-09-26T02:00:47.392Z,588.54
2022-09-26T02:00:58.593Z,588.55
2022-09-26T02:01:10.476Z,588.52
2022-09-26T02:01:21.436Z,588.53
2022-09-26T02:01:32.540Z,588.49
2022-09-26T02:01:43.551Z,588.46
2022-09-26T02:01:55.501Z,588.49
2022-09-26T02:02:06.510Z,588.44
2022-09-26T02:02:18.504Z,588.43
2022-09-26T02:02:30.498Z,588.44
2022-09-26T02:02:42.538Z,588.45
2022-09-26T02:02:54.404Z,588.44
2022-09-26T02:03:06.394Z,588.45
2022-09-26T02:03:17.415Z,588.47
2022-09-26T02:03:29.418Z,588.48
2022-09-26T02:03:40.406Z,588.50
2022-09-26T02:03:52.408Z,588.55
2022-09-26T02:04:03.409Z,588.57
2022-09-26T02:04:15.400Z,588.59
2022-09-26T02:04:27.392Z,588.62
2022-09-26T02:04:38.404Z,588.66
2022-09-26T02:04:50.384Z,588.71
2022-09-26T02:05:02.385Z,588.74
2022-09-26T02:05:13.383Z,588.77
2022-09-26T02:05:24.385Z,588.81
2022-09-26T02:05:35.390Z,588.83
2022-09-26T02:05:47.392Z,588.85
2022-09-26T02:05:59.385Z,588.89
2022-09-26T02:06:11.382Z,588.91
2022-09-26T02:06:23.378Z,588.93
2022-09-26T02:06:35.381Z,589.00
2022-09-26T02:06:46.384Z,589.03
2022-09-26T02:06:58.379Z,589.03
2022-09-26T02:07:09.381Z,589.06
2022-09-26T02:07:20.389Z,589.10
2022-09-26T02:07:32.376Z,589.15
2022-09-26T02:07:44.369Z,589.18
2022-09-26T02:07:56.373Z,589.19
2022-09-26T02:08:07.451Z,589.16
2022-09-26T02:08:19.461Z,589.18
2022-09-26T02:08:30.454Z,589.16
2022-09-26T02:08:42.452Z,589.19
2022-09-26T02:08:54.442Z,589.15
2022-09-26T02:09:06.464Z,589.15
2022-09-26T02:09:18.441Z,589.20
2022-09-26T02:09:30.439Z,589.22
2022-09-26T02:09:42.436Z,589.25
2022-09-26T02:09:53.436Z,589.30
2022-09-26T02:10:05.432Z,589.30
2022-09-26T02:10:16.522Z,589.30
2022-09-26T02:10:28.368Z,589.36
2022-09-26T02:10:39.372Z,589.35
2022-09-26T02:10:51.376Z,589.37
2022-09-26T02:11:02.381Z,589.40
2022-09-26T02:11:13.383Z,589.43
2022-09-26T02:11:25.384Z,589.43
2022-09-26T02:11:37.380Z,589.47
2022-09-26T02:11:49.378Z,589.49
2022-09-26T02:12:01.387Z,589.48
2022-09-26T02:12:13.370Z,589.51
2022-09-26T02:12:24.393Z,589.51
2022-09-26T02:12:36.387Z,589.55
2022-09-26T02:12:48.379Z,589.57
2022-09-26T02:13:00.382Z,589.63
2022-09-26T02:13:12.390Z,589.69
2022-09-26T02:13:24.411Z,589.72
2022-09-26T02:13:36.392Z,589.75
2022-09-26T02:13:48.394Z,589.84
2022-09-26T02:14:00.390Z,589.88
2022-09-26T02:14:12.379Z,589.90
2022-09-26T02:14:24.383Z,589.95
2022-09-26T02:14:35.361Z,589.99
2022-09-26T02:14:46.461Z,590.04
2022-09-26T02:14:58.458Z,590.13
2022-09-26T02:15:10.456Z,590.18
2022-09-26T02:15:22.451Z,590.23
2022-09-26T02:15:34.461Z,590.27
2022-09-26T02:15:46.457Z,590.32
2022-09-26T02:15:58.450Z,590.35
2022-09-26T02:16:10.506Z,590.39
2022-09-26T02:16:21.484Z,590.41
2022-09-26T02:16:32.470Z,590.40
2022-09-26T02:16:44.522Z,590.43
2022-09-26T02:16:56.495Z,590.43
2022-09-26T02:17:08.375Z,590.44
2022-09-26T02:17:20.372Z,590.50
2022-09-26T02:17:32.367Z,590.50
2022-09-26T02:17:43.457Z,590.52
2022-09-26T02:17:54.461Z,590.55
2022-09-26T02:18:06.454Z,590.59
2022-09-26T02:18:18.455Z,590.63
2022-09-26T02:18:29.444Z,590.70
2022-09-26T02:18:41.445Z,590.75
2022-09-26T02:18:52.451Z,590.81
2022-09-26T02:19:04.449Z,590.85
2022-09-26T02:19:15.614Z,590.90
2022-09-26T02:19:27.369Z,590.95
2022-09-26T02:19:38.373Z,590.98
2022-09-26T02:19:49.364Z,590.99
2022-09-26T02:20:00.365Z,591.02
2022-09-26T02:20:12.372Z,591.07
2022-09-26T02:20:24.374Z,591.10
2022-09-26T02:20:35.458Z,591.12
2022-09-26T02:20:47.455Z,591.15
2022-09-26T02:20:59.460Z,591.22
2022-09-26T02:21:11.459Z,591.23
2022-09-26T02:21:23.449Z,591.27
2022-09-26T02:21:35.444Z,591.28
2022-09-26T02:21:47.437Z,591.31
2022-09-26T02:21:58.431Z,591.34
2022-09-26T02:22:10.437Z,591.38
2022-09-26T02:22:22.422Z,591.39
2022-09-26T02:22:34.424Z,591.39
2022-09-26T02:22:46.407Z,591.40
2022-09-26T02:22:58.406Z,591.39
2022-09-26T02:23:10.406Z,591.44
2022-09-26T02:23:22.425Z,591.43
2022-09-26T02:23:34.409Z,591.44
2022-09-26T02:23:46.404Z,591.46
2022-09-26T02:23:58.403Z,591.49
2022-09-26T02:24:10.412Z,591.52
2022-09-26T02:24:22.390Z,591.50
2022-09-26T02:24:34.374Z,591.52
2022-09-26T02:24:46.405Z,591.52
2022-09-26T02:24:58.371Z,591.49
2022-09-26T02:25:10.378Z,591.48
2022-09-26T02:25:22.377Z,591.50
2022-09-26T02:25:33.378Z,591.52
2022-09-26T02:25:45.384Z,591.53
2022-09-26T02:25:57.379Z,591.50